createdAt,value
2022-12-03T00:03:03.585Z,51.90
2022-12-03T00:08:06.991Z,257.20
2022-12-03T00:13:10.335Z,59.00
2022-12-03T00:18:13.543Z,63.70
2022-12-03T00:23:16.957Z,55.10
2022-12-03T00:28:20.367Z,60.90
2022-12-03T00:33:23.578Z,59.70
2022-12-03T00:38:26.890Z,57.20
2022-12-03T00:43:30.196Z,53.90
2022-12-03T00:48:33.404Z,55.70
2022-12-03T00:58:40.333Z,72.30
2022-12-03T01:03:43.436Z,57.00
2022-12-03T01:13:49.752Z,55.50
2022-12-03T01:18:53.368Z,62.30
2022-12-03T01:34:03.299Z,64.10
2022-12-03T01:39:06.608Z,72.90
2022-12-03T01:44:25.016Z,71.50
2022-12-03T01:49:44.460Z,59.20
2022-12-03T01:54:59.547Z,60.10
2022-12-03T02:00:04.773Z,64.90
2022-12-03T02:05:19.734Z,59.70
2022-12-03T02:10:32.736Z,62.20
2022-12-03T02:15:40.387Z,60.40
2022-12-03T02:21:13.445Z,67.80
2022-12-03T02:26:16.960Z,65.10
2022-12-03T02:31:20.132Z,58.70
2022-12-03T02:36:24.192Z,64.10
2022-12-03T02:41:53.819Z,63.40
2022-12-03T02:46:57.101Z,59.30
2022-12-03T02:52:00.543Z,54.60
2022-12-03T02:57:04.364Z,53.80
2022-12-03T03:02:11.778Z,43.80
2022-12-03T03:07:16.003Z,61.80
2022-12-03T03:12:19.311Z,47.20
2022-12-03T03:17:22.519Z,58.40
2022-12-03T03:27:40.405Z,50.30
2022-12-03T03:32:43.922Z,39.80
2022-12-03T03:37:47.127Z,38.70
2022-12-03T03:42:50.640Z,52.00
2022-12-03T03:47:54.979Z,43.60
2022-12-03T03:52:59.825Z,40.70
2022-12-03T03:58:03.134Z,43.20
2022-12-03T04:03:07.265Z,47.50
2022-12-03T04:08:10.570Z,47.10
2022-12-03T04:13:13.882Z,59.20
2022-12-03T04:23:39.243Z,47.40
2022-12-03T04:28:51.158Z,56.00
2022-12-03T04:34:12.895Z,64.80
2022-12-03T04:39:16.103Z,54.60
2022-12-03T04:49:42.764Z,80.70
2022-12-03T04:54:46.309Z,64.50
2022-12-03T04:59:49.835Z,54.00
2022-12-03T05:04:53.129Z,59.00
2022-12-03T05:09:56.446Z,58.50
2022-12-03T05:20:21.805Z,64.20
2022-12-03T05:25:25.421Z,65.30
2022-12-03T05:30:28.814Z,61.30
2022-12-03T05:35:32.453Z,63.60
2022-12-03T05:40:35.964Z,63.60
2022-12-03T05:45:41.206Z,63.50
2022-12-03T05:50:46.397Z,56.90
2022-12-03T05:55:49.480Z,64.30
2022-12-03T06:11:00.025Z,159.50
2022-12-03T06:16:03.537Z,159.70
2022-12-03T06:21:07.052Z,63.40
2022-12-03T06:26:14.562Z,67.60
2022-12-03T06:31:18.128Z,69.40
2022-12-03T06:36:23.444Z,81.70
2022-12-03T06:41:27.053Z,74.40
2022-12-03T06:46:30.633Z,78.20
2022-12-03T06:51:33.883Z,92.50
2022-12-03T06:56:43.521Z,146.90
2022-12-03T07:01:48.648Z,154.10
2022-12-03T07:06:52.409Z,81.70
2022-12-03T07:11:55.727Z,98.80
2022-12-03T07:16:59.973Z,62.50
2022-12-03T07:22:03.894Z,107.20
2022-12-03T07:27:07.809Z,76.50
2022-12-03T07:32:11.012Z,105.20
2022-12-03T07:42:22.055Z,63.30
2022-12-03T07:52:28.659Z,80.20
2022-12-03T07:57:31.965Z,54.20
2022-12-03T08:02:35.480Z,78.60
2022-12-03T08:07:38.915Z,79.40
2022-12-03T08:12:42.618Z,79.00
2022-12-03T08:17:52.374Z,60.40
2022-12-03T08:22:57.764Z,74.80
2022-12-03T08:28:19.016Z,197.60
2022-12-03T08:33:35.735Z,191.70
2022-12-03T08:38:39.200Z,126.10
2022-12-03T08:43:44.106Z,231.00
2022-12-03T08:48:49.474Z,198.10
2022-12-03T08:54:01.911Z,166.30
2022-12-03T08:59:14.459Z,139.50
2022-12-03T09:04:36.643Z,94.90
2022-12-03T09:09:44.142Z,87.50
2022-12-03T09:14:47.849Z,67.60
2022-12-03T09:19:51.455Z,83.60
2022-12-03T09:24:55.923Z,68.80
2022-12-03T09:29:59.202Z,130.20
2022-12-03T09:40:08.218Z,76.70
2022-12-03T09:45:15.013Z,93.50
2022-12-03T09:50:24.687Z,82.30
2022-12-03T09:55:29.269Z,62.00
2022-12-03T10:00:32.375Z,83.10
2022-12-03T10:10:42.375Z,57.60
2022-12-03T10:15:45.786Z,62.30
2022-12-03T10:20:50.019Z,64.40
2022-12-03T10:26:03.857Z,102.00
2022-12-03T10:31:12.249Z,173.60
2022-12-03T10:36:15.512Z,99.30
2022-12-03T10:46:27.054Z,61.00
2022-12-03T10:51:31.640Z,83.40
2022-12-03T10:56:36.610Z,71.60
2022-12-03T11:01:40.912Z,106.40
2022-12-03T11:06:45.206Z,86.40
2022-12-03T11:11:50.197Z,99.40
2022-12-03T11:17:09.076Z,139.50
2022-12-03T11:22:19.853Z,128.10
2022-12-03T11:27:24.799Z,84.20
2022-12-03T11:32:44.746Z,61.20
2022-12-03T11:37:52.002Z,74.80
2022-12-03T11:42:57.828Z,75.10
2022-12-03T11:48:14.687Z,85.90
2022-12-03T11:53:25.122Z,77.50
2022-12-03T11:58:31.751Z,77.70
2022-12-03T12:03:48.250Z,77.80
2022-12-03T12:08:53.299Z,102.50
2022-12-03T12:14:12.304Z,82.50
2022-12-03T12:19:29.011Z,161.60
2022-12-03T12:24:51.935Z,170.70
2022-12-03T12:35:27.871Z,161.30
2022-12-03T12:40:34.995Z,128.10
2022-12-03T12:45:42.034Z,128.40
2022-12-03T12:50:49.418Z,175.80
2022-12-03T12:56:01.615Z,208.30
2022-12-03T13:01:12.248Z,169.60
2022-12-03T13:06:17.886Z,111.00
2022-12-03T13:11:37.777Z,228.50
2022-12-03T13:16:43.316Z,188.00
2022-12-03T13:21:48.915Z,124.90
2022-12-03T13:26:54.084Z,133.40
2022-12-03T13:32:13.402Z,111.60
2022-12-03T13:37:26.680Z,99.10
2022-12-03T13:42:42.288Z,72.10
2022-12-03T13:48:25.296Z,116.90
2022-12-03T13:53:38.739Z,101.90
2022-12-03T14:03:45.470Z,168.50
2022-12-03T14:08:49.075Z,251.90
2022-12-03T14:13:52.488Z,115.70
2022-12-03T14:23:58.696Z,72.40
2022-12-03T14:29:05.977Z,88.20
2022-12-03T14:34:13.103Z,96.50
2022-12-03T14:39:16.211Z,115.80
2022-12-03T14:49:26.309Z,185.60
2022-12-03T14:54:29.728Z,163.60
2022-12-03T14:59:32.858Z,119.60
2022-12-03T15:09:39.245Z,229.80
2022-12-03T15:14:43.597Z,189.40
2022-12-03T15:19:46.692Z,259.30
2022-12-03T15:29:54.070Z,129.50
2022-12-03T15:34:57.537Z,142.10
2022-12-03T15:40:00.744Z,156.00
2022-12-03T15:50:10.351Z,192.20
2022-12-03T15:55:13.955Z,187.50
2022-12-03T16:00:18.823Z,163.50
2022-12-03T16:05:22.421Z,164.50
2022-12-03T16:10:25.840Z,159.80
2022-12-03T16:15:29.447Z,151.40
2022-12-03T16:20:32.552Z,184.00
2022-12-03T16:31:02.815Z,154.70
2022-12-03T16:36:34.391Z,153.60
2022-12-03T16:41:37.922Z,238.30
2022-12-03T16:51:44.741Z,125.60
2022-12-03T17:01:51.315Z,176.50
2022-12-03T17:06:54.680Z,75.40
2022-12-03T17:11:57.982Z,187.70
2022-12-03T17:22:04.704Z,129.50
2022-12-03T17:27:08.319Z,139.80
2022-12-03T17:32:11.631Z,116.20
2022-12-03T17:37:17.091Z,93.10
2022-12-03T17:42:20.504Z,98.70
2022-12-03T17:47:23.610Z,123.50
2022-12-03T17:57:30.546Z,113.70
2022-12-03T18:02:33.861Z,107.00
2022-12-03T18:07:37.094Z,115.80
2022-12-03T18:17:43.884Z,109.80
2022-12-03T18:22:47.198Z,110.20
2022-12-03T18:27:51.015Z,150.60
2022-12-03T18:32:54.849Z,81.90
2022-12-03T18:37:58.455Z,98.10
2022-12-03T18:43:02.895Z,95.60
2022-12-03T18:48:17.025Z,144.00
2022-12-03T18:53:20.264Z,91.70
2022-12-03T19:03:26.949Z,111.70
2022-12-03T19:08:30.197Z,124.70
2022-12-03T19:18:37.025Z,195.90
2022-12-03T19:23:40.938Z,128.60
2022-12-03T19:28:44.222Z,150.90
2022-12-03T19:33:48.387Z,146.40
2022-12-03T19:38:57.114Z,132.40
2022-12-03T19:44:02.258Z,129.70
2022-12-03T19:49:08.046Z,86.50
2022-12-03T19:54:12.275Z,115.10
2022-12-03T19:59:15.687Z,146.80
2022-12-03T20:04:20.862Z,194.20
2022-12-03T20:09:24.152Z,147.90
2022-12-03T20:14:28.588Z,191.10
2022-12-03T20:19:31.804Z,331.70
2022-12-03T20:29:38.940Z,239.70
2022-12-03T20:34:44.704Z,129.40
2022-12-03T20:39:51.450Z,166.10
2022-12-03T20:44:55.827Z,136.10
2022-12-03T20:49:59.555Z,131.10
2022-12-03T20:55:02.781Z,132.10
2022-12-03T21:05:11.634Z,133.80
2022-12-03T21:10:33.983Z,135.40
2022-12-03T21:15:37.810Z,128.30
2022-12-03T21:20:47.384Z,154.80
2022-12-03T21:25:50.569Z,137.70
2022-12-03T21:35:57.604Z,129.00
2022-12-03T21:41:01.935Z,111.20
2022-12-03T21:47:11.156Z,125.80
2022-12-03T21:51:33.843Z,107.10
2022-12-03T21:56:37.466Z,159.80
2022-12-03T22:01:45.570Z,106.20
2022-12-03T22:06:50.334Z,104.30
2022-12-03T22:16:59.410Z,136.80
2022-12-03T22:22:03.882Z,344.40
2022-12-03T22:27:07.463Z,133.00
2022-12-03T22:32:10.873Z,155.30
2022-12-03T22:37:14.198Z,135.70
2022-12-03T22:47:21.429Z,109.00
2022-12-03T22:52:24.529Z,113.80
2022-12-03T22:57:27.737Z,127.50
2022-12-03T23:07:35.127Z,100.50
2022-12-03T23:12:38.590Z,98.80
2022-12-03T23:27:49.032Z,117.30
2022-12-03T23:32:52.754Z,112.80
2022-12-03T23:37:55.873Z,113.30
2022-12-03T23:42:59.271Z,104.70
2022-12-03T23:48:02.581Z,100.00
2022-12-03T23:58:08.897Z,130.70
